createdAt,value
2019-05-13T00:00:48.230Z,0.00
2019-05-13T00:01:48.309Z,0.00
2019-05-13T00:02:48.214Z,0.00
2019-05-13T00:03:48.234Z,0.00
2019-05-13T00:04:48.271Z,0.00
2019-05-13T00:05:48.200Z,0.00
2019-05-13T00:06:53.458Z,0.00
2019-05-13T00:07:49.199Z,0.00
2019-05-13T00:08:48.178Z,0.00
2019-05-13T00:09:48.147Z,0.00
2019-05-13T00:10:48.166Z,0.00
2019-05-13T00:11:48.166Z,0.00
2019-05-13T00:12:48.132Z,0.00
2019-05-13T00:13:48.110Z,0.00
2019-05-13T00:14:48.085Z,0.00
2019-05-13T00:15:48.080Z,0.00
2019-05-13T00:16:48.073Z,0.00
2019-05-13T00:17:48.081Z,0.00
2019-05-13T00:18:48.046Z,0.00
2019-05-13T00:19:48.040Z,0.00
2019-05-13T00:20:48.029Z,0.00
2019-05-13T00:21:48.024Z,0.00
2019-05-13T00:22:48.018Z,0.00
2019-05-13T00:23:47.983Z,0.00
2019-05-13T00:24:47.991Z,0.00
2019-05-13T00:25:47.975Z,0.00
2019-05-13T00:26:48.013Z,0.00
2019-05-13T00:27:47.971Z,0.00
2019-05-13T00:28:47.951Z,0.00
2019-05-13T00:29:47.995Z,0.00
2019-05-13T00:30:47.928Z,0.00
2019-05-13T00:31:47.909Z,0.00
2019-05-13T00:32:47.907Z,0.00
2019-05-13T00:33:47.888Z,0.00
2019-05-13T00:34:47.875Z,0.00
2019-05-13T00:35:47.886Z,0.00
2019-05-13T00:36:47.859Z,0.00
2019-05-13T00:37:47.861Z,0.00
2019-05-13T00:38:47.830Z,0.00
2019-05-13T00:39:47.820Z,0.00
2019-05-13T00:40:47.817Z,0.00
2019-05-13T00:41:47.802Z,0.00
2019-05-13T00:42:47.846Z,0.00
2019-05-13T00:43:47.777Z,0.00
2019-05-13T00:44:47.763Z,0.00
2019-05-13T00:45:47.764Z,0.00
2019-05-13T00:46:47.759Z,0.00
2019-05-13T00:47:47.745Z,0.00
2019-05-13T00:48:47.728Z,0.00
2019-05-13T00:49:47.739Z,0.00
2019-05-13T00:50:47.708Z,0.00
2019-05-13T00:51:47.695Z,0.00
2019-05-13T00:52:47.697Z,0.00
2019-05-13T00:53:47.662Z,0.00
2019-05-13T00:54:47.655Z,0.00
2019-05-13T00:55:47.669Z,0.00
2019-05-13T00:56:47.630Z,0.00
2019-05-13T00:57:47.639Z,0.00
2019-05-13T00:58:47.622Z,0.00
2019-05-13T00:59:47.621Z,0.00
2019-05-13T01:00:47.587Z,0.00
2019-05-13T01:01:47.599Z,0.00
2019-05-13T01:02:47.601Z,0.00
2019-05-13T01:03:47.580Z,0.00
2019-05-13T01:04:47.585Z,0.00
2019-05-13T01:05:47.541Z,0.00
2019-05-13T01:06:47.529Z,0.00
2019-05-13T01:07:47.541Z,0.00
2019-05-13T01:08:47.508Z,0.00
2019-05-13T01:09:47.501Z,0.00
2019-05-13T01:10:47.486Z,0.00
2019-05-13T01:11:47.499Z,0.00
2019-05-13T01:12:47.495Z,0.00
2019-05-13T01:13:47.449Z,0.00
2019-05-13T01:14:47.446Z,0.00
2019-05-13T01:15:47.450Z,0.00
2019-05-13T01:16:47.437Z,0.00
2019-05-13T01:17:47.422Z,0.00
2019-05-13T01:18:47.413Z,0.00
2019-05-13T01:19:47.385Z,0.00
2019-05-13T01:20:47.378Z,0.00
2019-05-13T01:21:47.370Z,0.00
2019-05-13T01:22:47.375Z,0.00
2019-05-13T01:23:47.358Z,0.00
2019-05-13T01:24:47.361Z,0.00
2019-05-13T01:25:47.353Z,0.00
2019-05-13T01:26:47.331Z,0.00
2019-05-13T01:27:47.367Z,0.00
2019-05-13T01:28:47.297Z,0.00
2019-05-13T01:29:47.280Z,0.00
2019-05-13T01:30:47.289Z,0.00
2019-05-13T01:31:47.291Z,0.00
2019-05-13T01:32:47.297Z,0.00
2019-05-13T01:33:47.326Z,0.00
2019-05-13T01:34:47.231Z,0.00
2019-05-13T01:35:47.264Z,0.00
2019-05-13T01:36:47.206Z,0.00
2019-05-13T01:37:47.195Z,0.00
2019-05-13T01:38:47.238Z,0.00
2019-05-13T01:39:47.219Z,0.00
2019-05-13T01:40:47.257Z,0.00
2019-05-13T01:41:47.156Z,0.00
2019-05-13T01:42:47.152Z,0.00
2019-05-13T01:43:47.156Z,0.00
2019-05-13T01:44:47.136Z,0.00
2019-05-13T01:45:47.118Z,0.00
2019-05-13T01:46:47.109Z,0.00
2019-05-13T01:47:47.094Z,0.00
2019-05-13T01:48:47.093Z,0.00
2019-05-13T01:49:47.070Z,0.00
2019-05-13T01:50:47.062Z,0.00
2019-05-13T01:51:47.040Z,0.00
2019-05-13T01:52:47.038Z,0.00
2019-05-13T01:53:47.033Z,0.00
2019-05-13T01:54:47.014Z,0.00
2019-05-13T01:55:47.010Z,0.00
2019-05-13T01:56:46.989Z,0.00
2019-05-13T01:57:46.995Z,0.00
2019-05-13T01:58:46.978Z,0.00
2019-05-13T01:59:46.958Z,0.00
2019-05-13T02:00:46.955Z,0.00
2019-05-13T02:01:46.936Z,0.00
2019-05-13T02:02:46.927Z,0.00
2019-05-13T02:03:46.986Z,0.00
2019-05-13T02:04:46.908Z,0.00
2019-05-13T02:05:46.922Z,0.00
2019-05-13T02:06:46.901Z,0.00
2019-05-13T02:07:57.080Z,0.00
2019-05-13T02:08:47.887Z,0.00
2019-05-13T02:09:46.859Z,0.00
2019-05-13T02:10:46.837Z,0.00
2019-05-13T02:11:46.895Z,0.00
2019-05-13T02:12:46.841Z,0.00
2019-05-13T02:13:46.826Z,0.00
2019-05-13T02:14:46.814Z,0.00
2019-05-13T02:15:46.843Z,0.00
2019-05-13T02:16:46.778Z,0.00
2019-05-13T02:17:46.793Z,0.00
2019-05-13T02:18:46.785Z,0.00
2019-05-13T02:19:46.787Z,0.00
2019-05-13T02:20:46.730Z,0.00
2019-05-13T02:21:46.734Z,0.00
2019-05-13T02:22:46.736Z,0.00
2019-05-13T02:23:46.697Z,0.00
2019-05-13T02:24:46.725Z,0.00
2019-05-13T02:25:46.674Z,0.00
2019-05-13T02:26:46.667Z,0.00
2019-05-13T02:27:46.698Z,0.00
2019-05-13T02:28:46.644Z,0.00
2019-05-13T02:29:46.650Z,0.00
2019-05-13T02:30:46.632Z,0.00
2019-05-13T02:31:52.186Z,0.00
2019-05-13T02:32:47.605Z,0.00
2019-05-13T02:33:46.598Z,0.00
2019-05-13T02:34:46.610Z,0.00
2019-05-13T02:35:46.580Z,0.00
2019-05-13T02:36:46.554Z,0.00
2019-05-13T02:37:46.598Z,0.00
2019-05-13T02:38:46.562Z,0.00
2019-05-13T02:39:46.560Z,0.00
2019-05-13T02:40:46.523Z,0.00
2019-05-13T02:41:46.510Z,0.00
2019-05-13T02:42:46.515Z,0.00
2019-05-13T02:43:46.493Z,0.00
2019-05-13T02:44:46.507Z,0.00
2019-05-13T02:45:46.480Z,0.00
2019-05-13T02:46:46.459Z,0.00
2019-05-13T02:47:46.439Z,0.00
2019-05-13T02:48:46.441Z,0.00
2019-05-13T02:49:46.445Z,0.00
2019-05-13T02:50:46.413Z,0.00
2019-05-13T02:51:46.415Z,0.00
2019-05-13T02:52:46.387Z,0.00
2019-05-13T02:53:46.382Z,0.00
2019-05-13T02:54:46.391Z,0.00
2019-05-13T02:55:46.389Z,0.00
2019-05-13T02:56:46.340Z,0.00
2019-05-13T02:57:46.381Z,0.00
2019-05-13T02:58:46.338Z,0.00
2019-05-13T02:59:46.349Z,0.00
2019-05-13T03:00:46.366Z,0.00
2019-05-13T03:01:46.387Z,0.00
2019-05-13T03:02:46.417Z,0.00
2019-05-13T03:03:46.365Z,0.00
2019-05-13T03:04:46.287Z,0.00
2019-05-13T03:05:46.259Z,0.00
2019-05-13T03:06:46.299Z,0.00
2019-05-13T03:07:46.234Z,0.00
2019-05-13T03:08:50.255Z,0.00
2019-05-13T03:09:47.494Z,0.00
2019-05-13T03:10:46.215Z,0.00
2019-05-13T03:11:46.189Z,0.00
2019-05-13T03:12:46.173Z,0.00
2019-05-13T03:13:46.179Z,0.00
2019-05-13T03:14:48.556Z,0.00
2019-05-13T03:15:46.157Z,0.00
2019-05-13T03:16:46.135Z,4.00
2019-05-13T03:17:46.121Z,4.00
2019-05-13T03:18:46.110Z,4.00
2019-05-13T03:19:46.122Z,0.00
2019-05-13T03:20:46.104Z,4.00
2019-05-13T03:21:46.081Z,4.00
2019-05-13T03:22:46.071Z,4.00
2019-05-13T03:23:46.067Z,4.00
2019-05-13T03:24:46.040Z,4.00
2019-05-13T03:25:46.051Z,8.00
2019-05-13T03:26:46.027Z,8.00
2019-05-13T03:27:46.018Z,12.00
2019-05-13T03:28:46.008Z,12.00
2019-05-13T03:29:45.998Z,12.00
2019-05-13T03:30:46.527Z,20.00
2019-05-13T03:31:47.116Z,20.00
2019-05-13T03:32:53.062Z,24.00
2019-05-13T03:33:47.820Z,28.00
2019-05-13T03:34:46.478Z,32.00
2019-05-13T03:35:46.297Z,40.00
2019-05-13T03:36:46.833Z,44.00
2019-05-13T03:37:45.907Z,52.00
2019-05-13T03:39:01.511Z,60.00
2019-05-13T03:39:46.881Z,64.00
2019-05-13T03:40:45.886Z,76.00
2019-05-13T03:41:45.891Z,88.00
2019-05-13T03:42:45.856Z,96.00
2019-05-13T03:43:45.838Z,116.00
2019-05-13T03:44:45.828Z,128.00
2019-05-13T03:45:45.839Z,144.00
2019-05-13T03:46:45.815Z,160.00
2019-05-13T03:47:45.804Z,180.00
2019-05-13T03:48:45.799Z,200.00
2019-05-13T03:49:45.774Z,224.00
2019-05-13T03:50:45.785Z,244.00
2019-05-13T03:51:45.756Z,268.00
2019-05-13T03:52:45.747Z,300.00
2019-05-13T03:53:45.733Z,324.00
2019-05-13T03:54:45.726Z,352.00
2019-05-13T03:55:45.741Z,384.00
2019-05-13T03:56:45.723Z,416.00
2019-05-13T03:57:45.719Z,448.00
2019-05-13T03:58:45.687Z,484.00
2019-05-13T03:59:45.674Z,520.00
2019-05-13T04:00:45.693Z,556.00
2019-05-13T04:01:45.663Z,600.00
2019-05-13T04:02:45.689Z,520.00
2019-05-13T04:03:45.621Z,680.00
2019-05-13T04:04:45.624Z,720.00
2019-05-13T04:05:45.632Z,768.00
2019-05-13T04:06:45.617Z,808.00
2019-05-13T04:07:45.608Z,856.00
2019-05-13T04:08:45.579Z,908.00
2019-05-13T04:09:45.581Z,952.00
2019-05-13T04:10:45.556Z,1000.00
2019-05-13T04:11:45.566Z,1052.00
2019-05-13T04:12:45.543Z,1100.00
2019-05-13T04:13:45.519Z,1152.00
2019-05-13T04:14:45.513Z,1204.00
2019-05-13T04:15:45.525Z,1260.00
2019-05-13T04:16:45.506Z,1320.00
2019-05-13T04:17:45.503Z,1376.00
2019-05-13T04:18:45.477Z,1432.00
2019-05-13T04:19:45.465Z,1484.00
2019-05-13T04:20:45.442Z,1544.00
2019-05-13T04:21:45.472Z,1608.00
2019-05-13T04:22:45.422Z,1664.00
2019-05-13T04:23:45.428Z,1720.00
2019-05-13T04:24:45.405Z,1776.00
2019-05-13T04:25:45.405Z,1828.00
2019-05-13T04:26:45.427Z,1884.00
2019-05-13T04:27:45.384Z,1948.00
2019-05-13T04:28:45.374Z,2012.00
2019-05-13T04:29:45.388Z,2072.00
2019-05-13T04:30:45.388Z,2136.00
2019-05-13T04:31:45.391Z,2200.00
2019-05-13T04:32:45.322Z,2272.00
2019-05-13T04:33:45.323Z,2340.00
2019-05-13T04:34:45.307Z,2420.00
2019-05-13T04:35:45.283Z,2504.00
2019-05-13T04:36:45.282Z,2584.00
2019-05-13T04:37:45.270Z,2664.00
2019-05-13T04:38:45.252Z,2740.00
2019-05-13T04:39:51.554Z,2816.00
2019-05-13T04:40:46.241Z,2888.00
2019-05-13T04:41:45.231Z,2964.00
2019-05-13T04:42:45.222Z,3036.00
2019-05-13T04:43:45.233Z,3100.00
2019-05-13T04:44:45.186Z,3164.00
2019-05-13T04:45:45.179Z,3232.00
2019-05-13T04:46:45.181Z,3296.00
2019-05-13T04:47:45.170Z,3356.00
2019-05-13T04:48:45.170Z,3424.00
2019-05-13T04:49:45.138Z,3484.00
2019-05-13T04:50:45.131Z,3512.00
2019-05-13T04:51:45.142Z,3568.00
2019-05-13T04:52:45.121Z,3628.00
2019-05-13T04:53:45.092Z,3692.00
2019-05-13T04:54:45.083Z,3748.00
2019-05-13T04:55:45.082Z,3800.00
2019-05-13T04:56:45.066Z,3844.00
2019-05-13T04:57:45.066Z,3888.00
2019-05-13T04:58:45.052Z,3936.00
2019-05-13T04:59:45.026Z,3976.00
2019-05-13T05:00:49.888Z,4024.00
2019-05-13T05:01:52.233Z,4076.00
2019-05-13T05:02:50.382Z,4116.00
2019-05-13T05:03:46.506Z,4168.00
2019-05-13T05:04:44.993Z,4220.00
2019-05-13T05:05:44.970Z,4272.00
2019-05-13T05:06:44.978Z,4312.00
2019-05-13T05:07:44.961Z,4384.00
2019-05-13T05:08:47.386Z,4436.00
2019-05-13T05:10:13.040Z,4492.00
2019-05-13T05:10:50.035Z,4556.00
2019-05-13T05:11:45.923Z,4892.00
2019-05-13T05:12:44.898Z,5080.00
2019-05-13T05:13:44.895Z,4696.00
2019-05-13T05:14:44.877Z,4724.00
2019-05-13T05:15:44.854Z,4764.00
2019-05-13T05:16:45.100Z,4908.00
2019-05-13T05:17:44.864Z,4856.00
2019-05-13T05:18:44.822Z,4888.00
2019-05-13T05:19:47.422Z,4916.00
2019-05-13T05:20:46.472Z,4964.00
2019-05-13T05:21:44.805Z,5028.00
2019-05-13T05:22:44.786Z,5096.00
2019-05-13T05:23:44.772Z,5108.00
2019-05-13T05:24:44.761Z,5184.00
2019-05-13T05:25:44.749Z,5232.00
2019-05-13T05:26:44.734Z,5280.00
2019-05-13T05:27:44.748Z,5348.00
2019-05-13T05:28:44.719Z,5336.00
2019-05-13T05:29:44.699Z,5428.00
2019-05-13T05:30:44.689Z,5492.00
2019-05-13T05:31:44.678Z,6756.00
2019-05-13T05:32:44.684Z,5992.00
2019-05-13T05:33:44.658Z,5612.00
2019-05-13T05:34:44.677Z,6092.00
2019-05-13T05:35:44.651Z,9940.00
2019-05-13T05:36:44.629Z,6676.00
2019-05-13T05:37:44.641Z,5752.00
2019-05-13T05:38:44.604Z,5748.00
2019-05-13T05:39:44.605Z,5788.00
2019-05-13T05:40:44.623Z,5836.00
2019-05-13T05:41:44.628Z,5868.00
2019-05-13T05:42:44.636Z,5936.00
2019-05-13T05:43:45.401Z,5972.00
2019-05-13T05:44:44.542Z,6008.00
2019-05-13T05:45:44.555Z,6072.00
2019-05-13T05:46:44.523Z,6184.00
2019-05-13T05:47:44.525Z,6400.00
2019-05-13T05:48:44.513Z,6368.00
2019-05-13T05:49:44.493Z,6200.00
2019-05-13T05:50:44.479Z,6340.00
2019-05-13T05:51:44.488Z,7044.00
2019-05-13T05:52:44.465Z,7988.00
2019-05-13T05:53:44.455Z,10284.00
2019-05-13T05:54:44.434Z,10740.00
2019-05-13T05:55:44.421Z,11092.00
2019-05-13T05:56:44.420Z,12100.00
2019-05-13T05:57:44.427Z,11552.00
2019-05-13T05:58:44.395Z,9068.00
2019-05-13T05:59:44.382Z,12796.00
2019-05-13T06:00:44.367Z,15552.00
2019-05-13T06:01:44.356Z,15776.00
2019-05-13T06:02:44.347Z,16768.00
2019-05-13T06:03:44.356Z,17152.00
2019-05-13T06:04:44.335Z,17184.00
2019-05-13T06:05:44.310Z,17472.00
2019-05-13T06:06:44.307Z,17536.00
2019-05-13T06:07:44.293Z,18112.00
2019-05-13T06:08:44.298Z,19200.00
2019-05-13T06:09:44.288Z,19744.00
2019-05-13T06:10:50.150Z,19680.00
2019-05-13T06:11:45.245Z,19584.00
2019-05-13T06:12:44.242Z,19936.00
2019-05-13T06:13:44.236Z,20992.00
2019-05-13T06:14:44.214Z,21696.00
2019-05-13T06:15:44.205Z,22112.00
2019-05-13T06:16:44.189Z,22240.00
2019-05-13T06:17:44.185Z,22336.00
2019-05-13T06:18:44.180Z,22688.00
2019-05-13T06:19:44.164Z,23104.00
2019-05-13T06:20:44.152Z,20928.00
2019-05-13T06:21:44.142Z,11928.00
2019-05-13T06:22:44.136Z,9952.00
2019-05-13T06:23:44.132Z,19264.00
2019-05-13T06:24:44.114Z,26112.00
2019-05-13T06:25:44.099Z,27968.00
2019-05-13T06:26:44.085Z,27584.00
2019-05-13T06:27:44.076Z,27968.00
2019-05-13T06:28:44.083Z,30272.00
2019-05-13T06:29:44.056Z,30368.00
2019-05-13T06:30:44.044Z,30592.00
2019-05-13T06:31:44.027Z,30592.00
2019-05-13T06:32:44.024Z,24032.00
2019-05-13T06:33:44.020Z,11664.00
2019-05-13T06:34:43.997Z,14276.00
2019-05-13T06:35:44.849Z,20256.00
2019-05-13T06:36:43.975Z,19008.00
2019-05-13T06:37:43.974Z,16320.00
2019-05-13T06:38:43.966Z,14400.00
2019-05-13T06:39:43.944Z,13200.00
2019-05-13T06:40:59.054Z,11888.00
2019-05-13T06:41:44.921Z,10924.00
2019-05-13T06:42:43.909Z,10616.00
2019-05-13T06:43:43.905Z,10264.00
2019-05-13T06:44:43.888Z,10392.00
2019-05-13T06:45:43.881Z,10772.00
2019-05-13T06:46:43.869Z,11276.00
2019-05-13T06:47:43.850Z,11552.00
2019-05-13T06:48:43.856Z,12252.00
2019-05-13T06:49:43.837Z,12592.00
2019-05-13T06:50:43.856Z,12760.00
2019-05-13T06:51:43.807Z,10928.00
2019-05-13T06:52:43.867Z,9400.00
2019-05-13T06:53:43.798Z,10572.00
2019-05-13T06:54:43.774Z,12896.00
2019-05-13T06:55:43.762Z,13768.00
2019-05-13T06:56:43.753Z,13912.00
2019-05-13T06:57:43.744Z,14224.00
2019-05-13T06:58:43.745Z,13840.00
2019-05-13T06:59:43.728Z,11716.00
2019-05-13T07:00:43.714Z,10312.00
2019-05-13T07:01:43.699Z,9700.00
2019-05-13T07:02:43.688Z,9564.00
2019-05-13T07:03:43.693Z,9468.00
2019-05-13T07:04:43.665Z,9448.00
2019-05-13T07:05:43.661Z,9468.00
2019-05-13T07:06:43.695Z,9492.00
2019-05-13T07:07:43.679Z,9484.00
2019-05-13T07:08:43.733Z,9524.00
2019-05-13T07:09:43.645Z,9568.00
2019-05-13T07:10:43.597Z,9560.00
2019-05-13T07:11:43.628Z,9784.00
2019-05-13T07:12:43.587Z,9880.00
2019-05-13T07:13:43.585Z,9960.00
2019-05-13T07:14:43.561Z,10080.00
2019-05-13T07:15:43.554Z,10160.00
2019-05-13T07:16:43.540Z,10260.00
2019-05-13T07:17:43.524Z,10472.00
2019-05-13T07:18:43.537Z,10688.00
2019-05-13T07:19:43.502Z,11028.00
2019-05-13T07:20:43.514Z,11372.00
2019-05-13T07:21:43.494Z,11260.00
2019-05-13T07:22:43.473Z,11388.00
2019-05-13T07:23:43.471Z,10792.00
2019-05-13T07:24:43.472Z,10872.00
2019-05-13T07:25:43.438Z,11164.00
2019-05-13T07:26:43.428Z,11448.00
2019-05-13T07:27:43.429Z,13024.00
2019-05-13T07:28:43.656Z,24736.00
2019-05-13T07:29:43.395Z,39872.00
2019-05-13T07:30:43.378Z,44832.00
2019-05-13T07:31:43.494Z,47232.00
2019-05-13T07:32:43.372Z,49152.00
2019-05-13T07:33:43.365Z,49216.00
2019-05-13T07:34:44.215Z,49536.00
2019-05-13T07:35:45.125Z,49824.00
2019-05-13T07:36:43.322Z,51360.00
2019-05-13T07:37:43.307Z,47904.00
2019-05-13T07:38:43.301Z,48576.00
2019-05-13T07:39:43.286Z,49472.00
2019-05-13T07:40:43.271Z,49056.00
2019-05-13T07:41:43.425Z,46496.00
2019-05-13T07:42:43.249Z,39904.00
2019-05-13T07:43:43.264Z,21088.00
2019-05-13T07:44:43.231Z,21664.00
2019-05-13T07:45:43.217Z,45280.00
2019-05-13T07:46:43.208Z,51616.00
2019-05-13T07:47:43.197Z,49088.00
2019-05-13T07:48:43.186Z,54624.00
2019-05-13T07:49:43.194Z,55104.00
2019-05-13T07:50:53.296Z,55264.00
2019-05-13T07:51:44.149Z,55232.00
2019-05-13T07:52:43.139Z,54176.00
2019-05-13T07:53:43.157Z,56224.00
2019-05-13T07:54:43.164Z,50752.00
2019-05-13T07:55:43.111Z,51712.00
2019-05-13T07:56:43.098Z,56864.00
2019-05-13T07:57:43.092Z,53824.00
2019-05-13T07:58:43.074Z,57248.00
2019-05-13T07:59:43.072Z,58528.00
2019-05-13T08:00:43.075Z,61536.00
2019-05-13T08:01:43.038Z,60800.00
2019-05-13T08:02:43.044Z,57376.00
2019-05-13T08:03:43.030Z,57760.00
2019-05-13T08:04:43.016Z,55040.00
2019-05-13T08:05:43.007Z,51872.00
2019-05-13T08:06:42.990Z,46688.00
2019-05-13T08:07:42.982Z,52800.00
2019-05-13T08:08:43.014Z,60448.00
2019-05-13T08:09:42.991Z,65792.00
2019-05-13T08:10:42.941Z,64320.00
2019-05-13T08:12:00.056Z,57408.00
2019-05-13T08:12:43.918Z,63072.00
2019-05-13T08:13:44.560Z,62816.00
2019-05-13T08:14:43.686Z,58656.00
2019-05-13T08:15:42.888Z,62592.00
2019-05-13T08:16:42.903Z,64160.00
2019-05-13T08:17:47.183Z,39776.00
2019-05-13T08:18:44.020Z,18784.00
2019-05-13T08:19:42.854Z,39712.00
2019-05-13T08:20:42.834Z,63200.00
2019-05-13T08:21:42.835Z,66208.00
2019-05-13T08:22:42.818Z,67872.00
2019-05-13T08:23:42.807Z,56576.00
2019-05-13T08:24:42.811Z,59136.00
2019-05-13T08:25:42.781Z,66208.00
2019-05-13T08:26:45.064Z,69280.00
2019-05-13T08:27:43.762Z,54464.00
2019-05-13T08:28:57.277Z,67808.00
2019-05-13T08:29:43.748Z,69600.00
2019-05-13T08:30:43.083Z,68192.00
2019-05-13T08:31:42.713Z,66560.00
2019-05-13T08:32:42.711Z,68672.00
2019-05-13T08:33:42.693Z,68032.00
2019-05-13T08:34:42.682Z,67200.00
2019-05-13T08:35:46.957Z,70688.00
2019-05-13T08:36:43.701Z,71104.00
2019-05-13T08:37:42.669Z,70528.00
2019-05-13T08:38:43.282Z,25760.00
2019-05-13T08:39:42.707Z,61280.00
2019-05-13T08:40:42.728Z,41440.00
2019-05-13T08:41:42.622Z,71552.00
2019-05-13T08:42:42.599Z,72640.00
2019-05-13T08:43:42.587Z,69760.00
2019-05-13T08:44:42.581Z,72448.00
2019-05-13T08:45:42.575Z,68448.00
2019-05-13T08:46:42.559Z,63552.00
2019-05-13T08:47:42.542Z,64544.00
2019-05-13T08:48:42.976Z,24768.00
2019-05-13T08:49:42.584Z,31136.00
2019-05-13T08:50:42.522Z,65632.00
2019-05-13T08:51:42.562Z,75904.00
2019-05-13T08:52:42.489Z,67648.00
2019-05-13T08:53:42.644Z,36384.00
2019-05-13T08:54:42.466Z,76384.00
2019-05-13T08:55:42.990Z,77696.00
2019-05-13T08:56:42.439Z,78016.00
2019-05-13T08:57:42.429Z,78688.00
2019-05-13T08:58:42.433Z,81056.00
2019-05-13T08:59:42.514Z,79552.00
2019-05-13T09:00:42.412Z,80704.00
2019-05-13T09:01:42.835Z,79744.00
2019-05-13T09:02:42.374Z,76608.00
2019-05-13T09:03:42.369Z,25120.00
2019-05-13T09:04:42.634Z,79424.00
2019-05-13T09:05:42.353Z,83296.00
2019-05-13T09:06:42.331Z,81440.00
2019-05-13T09:07:42.324Z,79840.00
2019-05-13T09:08:42.614Z,85984.00
2019-05-13T09:09:42.303Z,88608.00
2019-05-13T09:10:42.316Z,87584.00
2019-05-13T09:11:42.394Z,20928.00
2019-05-13T09:12:43.350Z,43200.00
2019-05-13T09:13:42.475Z,33664.00
2019-05-13T09:14:42.243Z,80896.00
2019-05-13T09:15:42.358Z,77536.00
2019-05-13T09:16:42.241Z,83328.00
2019-05-13T09:17:42.585Z,85760.00
2019-05-13T09:18:42.690Z,85728.00
2019-05-13T09:19:42.187Z,83392.00
2019-05-13T09:20:42.179Z,72480.00
2019-05-13T09:21:42.510Z,85440.00
2019-05-13T09:22:42.162Z,81696.00
2019-05-13T09:23:42.145Z,81184.00
2019-05-13T09:24:42.676Z,88032.00
2019-05-13T09:25:42.124Z,22880.00
2019-05-13T09:26:42.357Z,81184.00
2019-05-13T09:27:42.578Z,35680.00
2019-05-13T09:28:42.090Z,55200.00
2019-05-13T09:29:42.845Z,31840.00
2019-05-13T09:30:42.499Z,32736.00
2019-05-13T09:31:42.070Z,47744.00
2019-05-13T09:32:42.712Z,77664.00
2019-05-13T09:33:42.035Z,93088.00
2019-05-13T09:34:42.418Z,89536.00
2019-05-13T09:35:42.326Z,83360.00
2019-05-13T09:36:42.072Z,85696.00
2019-05-13T09:37:42.446Z,77856.00
2019-05-13T09:38:42.021Z,47712.00
2019-05-13T09:39:41.969Z,38528.00
2019-05-13T09:40:42.368Z,32096.00
2019-05-13T09:41:44.693Z,64320.00
2019-05-13T09:42:50.874Z,76384.00
2019-05-13T09:43:42.938Z,58080.00
2019-05-13T09:44:42.197Z,90656.00
2019-05-13T09:45:42.008Z,94400.00
2019-05-13T09:46:42.636Z,90528.00
2019-05-13T09:47:41.989Z,90688.00
2019-05-13T09:48:42.582Z,77664.00
2019-05-13T09:49:42.205Z,94272.00
2019-05-13T09:50:42.506Z,47552.00
2019-05-13T09:51:41.883Z,43392.00
2019-05-13T09:52:42.888Z,80704.00
2019-05-13T09:53:41.819Z,89728.00
2019-05-13T09:54:42.688Z,101536.00
2019-05-13T09:55:41.799Z,99168.00
2019-05-13T09:56:41.799Z,98016.00
2019-05-13T09:57:41.778Z,96800.00
2019-05-13T09:58:42.167Z,94048.00
2019-05-13T09:59:42.331Z,92224.00
2019-05-13T10:00:42.240Z,57312.00
2019-05-13T10:01:42.580Z,52512.00
2019-05-13T10:02:42.653Z,89568.00
2019-05-13T10:03:54.135Z,96224.00
2019-05-13T10:04:43.606Z,88448.00
2019-05-13T10:05:41.690Z,93824.00
2019-05-13T10:06:42.275Z,91776.00
2019-05-13T10:07:42.433Z,80160.00
2019-05-13T10:08:42.041Z,70752.00
2019-05-13T10:09:42.961Z,56352.00
2019-05-13T10:10:42.408Z,92224.00
2019-05-13T10:11:41.649Z,86464.00
2019-05-13T10:12:42.576Z,79712.00
2019-05-13T10:13:41.607Z,45344.00
2019-05-13T10:14:41.598Z,25216.00
2019-05-13T10:15:42.097Z,65696.00
2019-05-13T10:16:42.591Z,86048.00
2019-05-13T10:17:42.784Z,96704.00
2019-05-13T10:18:42.234Z,40320.00
2019-05-13T10:19:42.145Z,55872.00
2019-05-13T10:20:42.176Z,19744.00
2019-05-13T10:21:42.272Z,94816.00
2019-05-13T10:22:41.942Z,29216.00
2019-05-13T10:23:42.136Z,23424.00
2019-05-13T10:24:42.325Z,30656.00
2019-05-13T10:25:41.481Z,39680.00
2019-05-13T10:26:43.035Z,100832.00
2019-05-13T10:27:42.038Z,101728.00
2019-05-13T10:28:42.676Z,100352.00
2019-05-13T10:29:42.414Z,23232.00
2019-05-13T10:30:43.753Z,49920.00
2019-05-13T10:31:42.187Z,101216.00
2019-05-13T10:32:42.541Z,35840.00
2019-05-13T10:33:41.995Z,35968.00
2019-05-13T10:34:42.616Z,33600.00
2019-05-13T10:35:42.916Z,103232.00
2019-05-13T10:36:42.095Z,97472.00
2019-05-13T10:37:42.067Z,98144.00
2019-05-13T10:38:41.608Z,97760.00
2019-05-13T10:39:41.335Z,100352.00
2019-05-13T10:40:43.227Z,37536.00
2019-05-13T10:41:42.286Z,65888.00
2019-05-13T10:42:43.322Z,44416.00
2019-05-13T10:43:44.240Z,32608.00
2019-05-13T10:44:42.263Z,30336.00
2019-05-13T10:45:41.764Z,32224.00
2019-05-13T10:46:42.635Z,31168.00
2019-05-13T10:47:42.290Z,36256.00
2019-05-13T10:48:41.690Z,113056.00
2019-05-13T10:49:42.527Z,36224.00
2019-05-13T10:50:41.875Z,26912.00
2019-05-13T10:51:41.940Z,30784.00
2019-05-13T10:52:42.709Z,111072.00
2019-05-13T10:53:42.617Z,105728.00
2019-05-13T10:54:41.647Z,27776.00
2019-05-13T10:55:42.246Z,35136.00
2019-05-13T10:56:43.058Z,33664.00
2019-05-13T10:57:42.350Z,31264.00
2019-05-13T10:58:42.730Z,30464.00
2019-05-13T10:59:41.114Z,31648.00
2019-05-13T11:00:42.375Z,31680.00
2019-05-13T11:01:42.646Z,26048.00
2019-05-13T11:02:42.366Z,26368.00
2019-05-13T11:03:42.772Z,26528.00
2019-05-13T11:04:41.792Z,27392.00
2019-05-13T11:05:44.455Z,28864.00
2019-05-13T11:06:41.645Z,30720.00
2019-05-13T11:07:42.110Z,121568.00
2019-05-13T11:08:42.226Z,36224.00
2019-05-13T11:09:41.769Z,35232.00
2019-05-13T11:10:42.139Z,35840.00
2019-05-13T11:11:41.504Z,34464.00
2019-05-13T11:12:41.880Z,41024.00
2019-05-13T11:13:56.417Z,39104.00
2019-05-13T11:14:42.363Z,124768.00
2019-05-13T11:15:45.450Z,121856.00
2019-05-13T11:16:42.762Z,111168.00
2019-05-13T11:17:42.629Z,38176.00
2019-05-13T11:18:40.915Z,70112.00
2019-05-13T11:19:40.899Z,124800.00
2019-05-13T11:20:41.959Z,125088.00
2019-05-13T11:21:44.091Z,45600.00
2019-05-13T11:22:40.868Z,125568.00
2019-05-13T11:23:40.885Z,68768.00
2019-05-13T11:24:43.076Z,26592.00
2019-05-13T11:25:41.618Z,25632.00
2019-05-13T11:26:41.810Z,25728.00
2019-05-13T11:27:42.195Z,28192.00
2019-05-13T11:28:42.889Z,29280.00
2019-05-13T11:29:41.477Z,30016.00
2019-05-13T11:30:42.335Z,31584.00
2019-05-13T11:31:42.876Z,27744.00
2019-05-13T11:32:42.662Z,31232.00
2019-05-13T11:33:42.531Z,127104.00
2019-05-13T11:34:41.999Z,46528.00
2019-05-13T11:35:41.479Z,36960.00
2019-05-13T11:36:43.054Z,116960.00
2019-05-13T11:37:43.345Z,50464.00
2019-05-13T11:38:43.250Z,131808.00
2019-05-13T11:39:42.828Z,127200.00
2019-05-13T11:40:40.679Z,122368.00
2019-05-13T11:41:42.639Z,100640.00
2019-05-13T11:42:42.171Z,109568.00
2019-05-13T11:43:41.339Z,110304.00
2019-05-13T11:44:42.927Z,112352.00
2019-05-13T11:45:42.084Z,116320.00
2019-05-13T11:46:42.712Z,115904.00
2019-05-13T11:47:41.516Z,117632.00
2019-05-13T11:48:42.524Z,120800.00
2019-05-13T11:49:42.582Z,119296.00
2019-05-13T11:50:42.911Z,32224.00
2019-05-13T11:51:42.608Z,121600.00
2019-05-13T11:52:42.453Z,114688.00
2019-05-13T11:53:41.675Z,38272.00
2019-05-13T11:54:42.496Z,38656.00
2019-05-13T11:55:42.426Z,39552.00
2019-05-13T11:56:48.429Z,47232.00
2019-05-13T11:57:44.424Z,59840.00
2019-05-13T11:58:43.049Z,134336.00
2019-05-13T11:59:43.008Z,71776.00
2019-05-13T12:00:42.688Z,96160.00
2019-05-13T12:01:42.679Z,65024.00
2019-05-13T12:02:42.525Z,57280.00
2019-05-13T12:03:43.443Z,105280.00
2019-05-13T12:04:43.277Z,34240.00
2019-05-13T12:05:42.142Z,32672.00
2019-05-13T12:06:47.966Z,29696.00
2019-05-13T12:07:42.072Z,28512.00
2019-05-13T12:08:49.815Z,27616.00
2019-05-13T12:09:41.380Z,30432.00
2019-05-13T12:10:43.998Z,32896.00
2019-05-13T12:11:40.349Z,64320.00
2019-05-13T12:12:43.309Z,129952.00
2019-05-13T12:13:42.449Z,41344.00
2019-05-13T12:14:56.894Z,71264.00